createdAt,value
2023-04-21T00:02:23.604Z,9.30
2023-04-21T00:05:25.664Z,9.10
2023-04-21T00:08:27.819Z,8.80
2023-04-21T00:11:29.428Z,8.80
2023-04-21T00:14:30.967Z,9.00
2023-04-21T00:17:32.967Z,8.80
2023-04-21T00:20:34.572Z,8.80
2023-04-21T00:23:36.360Z,8.80
2023-04-21T00:26:37.996Z,9.60
2023-04-21T00:29:40.616Z,8.60
2023-04-21T00:32:42.262Z,9.40
2023-04-21T00:35:43.848Z,9.00
2023-04-21T00:38:45.550Z,8.70
2023-04-21T00:41:47.137Z,8.70
2023-04-21T00:44:48.932Z,8.90
2023-04-21T00:47:50.645Z,9.00
2023-04-21T00:50:52.322Z,8.80
2023-04-21T00:53:55.569Z,8.90
2023-04-21T00:56:58.393Z,9.10
2023-04-21T01:00:00.172Z,8.90
2023-04-21T01:03:02.133Z,9.40
2023-04-21T01:06:03.971Z,9.10
2023-04-21T01:09:05.764Z,8.60
2023-04-21T01:12:09.970Z,8.80
2023-04-21T01:15:13.762Z,8.90
2023-04-21T01:18:17.030Z,9.20
2023-04-21T01:21:19.414Z,8.90
2023-04-21T01:24:21.053Z,9.00
2023-04-21T01:27:22.984Z,9.00
2023-04-21T01:30:24.868Z,9.10
2023-04-21T01:33:27.105Z,8.70
2023-04-21T01:36:28.693Z,9.00
2023-04-21T01:39:30.321Z,9.10
2023-04-21T01:42:33.273Z,8.80
2023-04-21T01:45:35.078Z,8.90
2023-04-21T01:48:37.098Z,9.00
2023-04-21T01:51:38.657Z,8.80
2023-04-21T01:54:40.204Z,8.30
2023-04-21T01:57:41.788Z,8.80
2023-04-21T02:00:43.567Z,7.80
2023-04-21T02:03:46.110Z,10.70
2023-04-21T02:06:50.744Z,8.80
2023-04-21T02:09:52.284Z,8.20
2023-04-21T02:12:53.904Z,9.00
2023-04-21T02:16:09.690Z,9.80
2023-04-21T02:19:15.021Z,9.20
2023-04-21T02:22:17.010Z,9.40
2023-04-21T02:25:19.969Z,9.20
2023-04-21T02:28:21.804Z,9.20
2023-04-21T02:31:23.498Z,8.70
2023-04-21T02:34:25.415Z,9.00
2023-04-21T02:37:27.161Z,9.00
2023-04-21T02:40:30.710Z,8.90
2023-04-21T02:43:32.268Z,9.00
2023-04-21T02:46:33.883Z,9.00
2023-04-21T02:49:39.652Z,9.00
2023-04-21T02:52:41.217Z,8.90
2023-04-21T02:55:43.197Z,9.10
2023-04-21T02:58:45.788Z,9.10
2023-04-21T03:01:49.071Z,9.00
2023-04-21T03:04:53.954Z,9.10
2023-04-21T03:07:56.108Z,8.90
2023-04-21T03:10:58.193Z,9.20
2023-04-21T03:13:59.718Z,9.00
2023-04-21T03:17:01.283Z,9.30
2023-04-21T03:20:06.283Z,9.10
2023-04-21T03:23:07.860Z,10.80
2023-04-21T03:26:09.501Z,8.70
2023-04-21T03:29:11.066Z,8.90
2023-04-21T03:32:12.815Z,8.90
2023-04-21T03:35:14.481Z,8.80
2023-04-21T03:38:16.467Z,9.00
2023-04-21T03:41:18.136Z,9.20
2023-04-21T03:44:19.716Z,8.80
2023-04-21T03:47:21.307Z,9.00
2023-04-21T03:50:23.544Z,9.70
2023-04-21T03:53:25.107Z,8.90
2023-04-21T03:56:26.702Z,9.00
2023-04-21T03:59:28.572Z,9.30
2023-04-21T04:02:30.243Z,9.10
2023-04-21T04:05:32.048Z,8.80
2023-04-21T04:08:33.688Z,9.30
2023-04-21T04:11:35.439Z,9.00
2023-04-21T04:14:37.090Z,8.90
2023-04-21T04:17:38.704Z,9.00
2023-04-21T04:20:40.265Z,9.30
2023-04-21T04:23:42.536Z,9.00
2023-04-21T04:26:44.452Z,9.80
2023-04-21T04:29:46.444Z,9.00
2023-04-21T04:32:48.099Z,9.10
2023-04-21T04:35:49.678Z,9.20
2023-04-21T04:38:51.566Z,9.00
2023-04-21T04:41:53.866Z,9.40
2023-04-21T04:44:57.134Z,9.50
2023-04-21T04:47:59.889Z,9.10
2023-04-21T04:51:01.461Z,8.70
2023-04-21T04:54:03.114Z,9.00
2023-04-21T04:57:04.662Z,8.70
2023-04-21T05:00:11.031Z,9.30
2023-04-21T05:03:12.668Z,9.10
2023-04-21T05:06:14.411Z,9.40
2023-04-21T05:09:16.467Z,8.90
2023-04-21T05:12:18.078Z,9.10
2023-04-21T05:15:19.645Z,9.10
2023-04-21T05:18:21.178Z,8.90
2023-04-21T05:21:27.389Z,9.20
2023-04-21T05:24:29.121Z,8.70
2023-04-21T05:27:30.758Z,8.90
2023-04-21T05:30:32.327Z,8.80
2023-04-21T05:33:33.911Z,8.60
2023-04-21T05:36:35.587Z,8.80
2023-04-21T05:39:37.133Z,8.40
2023-04-21T05:42:38.699Z,8.70
2023-04-21T05:45:41.047Z,8.80
2023-04-21T05:48:42.791Z,8.80
2023-04-21T05:51:44.551Z,8.90
2023-04-21T05:54:46.117Z,9.00
2023-04-21T05:57:47.742Z,8.80
2023-04-21T06:00:50.445Z,8.70
2023-04-21T06:03:52.153Z,9.20
2023-04-21T06:06:53.819Z,9.50
2023-04-21T06:09:56.029Z,9.40
2023-04-21T06:12:57.695Z,9.40
2023-04-21T06:15:59.309Z,9.30
2023-04-21T06:19:01.055Z,9.70
2023-04-21T06:22:02.638Z,10.10
2023-04-21T06:25:05.469Z,10.10
2023-04-21T06:28:07.156Z,10.30
2023-04-21T06:31:09.783Z,9.90
2023-04-21T06:34:11.491Z,10.70
2023-04-21T06:37:13.117Z,12.10
2023-04-21T06:40:16.392Z,10.90
2023-04-21T06:43:18.056Z,11.00
2023-04-21T06:46:19.685Z,11.10
2023-04-21T06:49:21.551Z,10.60
2023-04-21T06:52:23.303Z,10.60
2023-04-21T06:55:25.372Z,10.40
2023-04-21T06:58:27.152Z,10.50
2023-04-21T07:01:28.822Z,11.00
2023-04-21T07:04:32.311Z,10.90
2023-04-21T07:07:34.312Z,10.70
2023-04-21T07:10:35.991Z,12.10
2023-04-21T07:13:37.564Z,11.10
2023-04-21T07:16:39.292Z,11.00
2023-04-21T07:19:40.981Z,10.60
2023-04-21T07:22:42.488Z,11.10
2023-04-21T07:25:44.076Z,11.10
2023-04-21T07:28:45.651Z,11.20
2023-04-21T07:31:48.194Z,10.90
2023-04-21T07:34:50.045Z,11.10
2023-04-21T07:37:51.746Z,11.60
2023-04-21T07:40:53.483Z,11.60
2023-04-21T07:43:55.467Z,11.40
2023-04-21T07:46:57.012Z,11.70
2023-04-21T07:49:58.745Z,11.70
2023-04-21T07:53:01.678Z,12.00
2023-04-21T07:56:03.387Z,11.40
2023-04-21T07:59:04.948Z,12.60
2023-04-21T08:02:07.722Z,11.80
2023-04-21T08:05:09.629Z,11.80
2023-04-21T08:08:11.819Z,12.00
2023-04-21T08:11:13.406Z,12.10
2023-04-21T08:14:15.245Z,11.90
2023-04-21T08:17:16.905Z,12.10
2023-04-21T08:20:18.519Z,12.00
2023-04-21T08:23:20.226Z,12.30
2023-04-21T08:26:23.690Z,12.30
2023-04-21T08:29:25.268Z,12.20
2023-04-21T08:32:27.424Z,13.60
2023-04-21T08:35:29.059Z,12.40
2023-04-21T08:38:30.790Z,12.70
2023-04-21T08:41:32.449Z,12.80
2023-04-21T08:44:34.044Z,12.20
2023-04-21T08:47:38.538Z,12.90
2023-04-21T08:50:42.431Z,13.10
2023-04-21T08:53:44.599Z,12.70
2023-04-21T08:56:48.538Z,13.40
2023-04-21T08:59:50.265Z,13.20
2023-04-21T09:03:01.734Z,10.60
2023-04-21T09:06:09.628Z,13.20
2023-04-21T09:09:11.610Z,13.00
2023-04-21T09:12:13.164Z,13.20
2023-04-21T09:15:14.722Z,13.20
2023-04-21T09:18:17.385Z,13.20
2023-04-21T09:21:20.400Z,13.50
2023-04-21T09:24:22.038Z,13.30
2023-04-21T09:27:23.662Z,13.50
2023-04-21T09:30:25.580Z,13.70
2023-04-21T09:33:34.292Z,13.60
2023-04-21T09:36:36.144Z,13.60
2023-04-21T09:39:52.799Z,13.30
2023-04-21T09:42:58.810Z,13.90
2023-04-21T09:46:03.427Z,13.40
2023-04-21T09:49:06.006Z,13.90
2023-04-21T09:52:18.438Z,13.80
2023-04-21T09:55:26.952Z,13.90
2023-04-21T09:58:34.823Z,13.80
2023-04-21T10:01:38.849Z,14.30
2023-04-21T10:04:42.488Z,14.40
2023-04-21T10:07:45.383Z,13.90
2023-04-21T10:10:47.606Z,14.20
2023-04-21T10:13:49.591Z,14.00
2023-04-21T10:17:18.089Z,14.10
2023-04-21T10:20:19.899Z,14.40
2023-04-21T10:23:37.648Z,13.90
2023-04-21T10:26:39.224Z,14.10
2023-04-21T10:29:55.453Z,14.20
2023-04-21T10:33:06.014Z,14.30
2023-04-21T10:36:12.158Z,14.20
2023-04-21T10:39:52.844Z,14.20
2023-04-21T10:42:54.843Z,14.40
2023-04-21T10:45:56.397Z,13.90
2023-04-21T10:49:06.898Z,15.60
2023-04-21T10:52:09.783Z,14.20
2023-04-21T10:55:12.790Z,14.30
2023-04-21T10:58:16.543Z,14.40
2023-04-21T11:01:18.915Z,14.30
2023-04-21T11:04:23.138Z,14.20
2023-04-21T11:07:26.048Z,14.20
2023-04-21T11:10:27.609Z,14.40
2023-04-21T11:13:33.538Z,14.10
2023-04-21T11:16:36.855Z,14.00
2023-04-21T11:19:38.759Z,14.60
2023-04-21T11:22:40.324Z,14.50
2023-04-21T11:25:47.069Z,14.70
2023-04-21T11:28:49.893Z,14.50
2023-04-21T11:31:53.586Z,14.90
2023-04-21T11:34:55.303Z,16.60
2023-04-21T11:37:56.934Z,15.10
2023-04-21T11:40:58.484Z,14.90
2023-04-21T11:44:01.301Z,15.20
2023-04-21T11:47:13.955Z,15.10
2023-04-21T11:50:31.107Z,15.40
2023-04-21T11:53:32.877Z,16.20
2023-04-21T11:56:42.649Z,15.40
2023-04-21T11:59:46.980Z,17.30
2023-04-21T12:02:56.457Z,17.00
2023-04-21T12:05:58.577Z,15.90
2023-04-21T12:09:02.428Z,16.00
2023-04-21T12:12:05.372Z,18.70
2023-04-21T12:15:08.667Z,16.80
2023-04-21T12:18:13.978Z,16.40
2023-04-21T12:21:16.497Z,16.10
2023-04-21T12:24:18.038Z,16.30
2023-04-21T12:27:21.041Z,16.30
2023-04-21T12:30:22.628Z,16.50
2023-04-21T12:33:24.408Z,16.10
2023-04-21T12:36:27.732Z,16.30
2023-04-21T12:39:30.502Z,16.30
2023-04-21T12:42:33.115Z,16.50
2023-04-21T12:45:36.494Z,18.30
2023-04-21T12:48:38.127Z,16.40
2023-04-21T12:51:39.673Z,14.60
2023-04-21T12:54:41.705Z,16.30
2023-04-21T12:57:43.565Z,16.70
2023-04-21T13:00:45.220Z,16.60
2023-04-21T13:03:46.903Z,16.70
2023-04-21T13:06:48.670Z,16.60
2023-04-21T13:09:50.574Z,16.60
2023-04-21T13:12:52.420Z,16.40
2023-04-21T13:15:54.179Z,16.80
2023-04-21T13:18:55.722Z,17.00
2023-04-21T13:21:57.304Z,17.10
2023-04-21T13:24:58.905Z,16.70
2023-04-21T13:28:00.883Z,16.80
2023-04-21T13:31:02.602Z,18.30
2023-04-21T13:34:04.288Z,17.70
2023-04-21T13:37:08.958Z,18.30
2023-04-21T13:40:11.280Z,18.60
2023-04-21T13:43:13.154Z,17.70
2023-04-21T13:46:17.035Z,17.90
2023-04-21T13:49:18.694Z,19.90
2023-04-21T13:52:20.296Z,18.40
2023-04-21T13:55:21.918Z,18.80
2023-04-21T13:58:23.597Z,18.50
2023-04-21T14:01:25.580Z,19.10
2023-04-21T14:04:27.506Z,19.50
2023-04-21T14:07:29.266Z,19.90
2023-04-21T14:10:31.164Z,20.20
2023-04-21T14:13:39.580Z,22.50
2023-04-21T14:16:43.734Z,18.40
2023-04-21T14:19:45.507Z,21.40
2023-04-21T14:22:47.137Z,20.50
2023-04-21T14:25:48.752Z,20.90
2023-04-21T14:28:51.120Z,18.60
2023-04-21T14:31:57.404Z,18.90
2023-04-21T14:35:00.514Z,18.20
2023-04-21T14:38:02.165Z,20.10
2023-04-21T14:41:04.203Z,19.10
2023-04-21T14:44:05.773Z,19.10
2023-04-21T14:47:10.375Z,19.50
2023-04-21T14:50:12.869Z,21.20
2023-04-21T14:53:14.606Z,18.90
2023-04-21T14:56:16.177Z,18.50
2023-04-21T14:59:17.937Z,19.10
2023-04-21T15:02:20.908Z,21.30
2023-04-21T15:05:26.292Z,18.70
2023-04-21T15:08:28.047Z,19.00
2023-04-21T15:11:29.766Z,18.30
2023-04-21T15:14:31.680Z,18.00
2023-04-21T15:17:33.459Z,18.90
2023-04-21T15:20:44.319Z,18.10
2023-04-21T15:23:47.382Z,19.50
2023-04-21T15:26:48.981Z,18.20
2023-04-21T15:29:50.580Z,18.70
2023-04-21T15:32:52.659Z,18.60
2023-04-21T15:35:54.280Z,18.80
2023-04-21T15:38:56.048Z,18.50
2023-04-21T15:41:58.987Z,18.20
2023-04-21T15:45:02.060Z,18.30
2023-04-21T15:48:03.790Z,19.70
2023-04-21T15:51:05.678Z,17.90
2023-04-21T15:54:07.280Z,18.10
2023-04-21T15:57:08.928Z,18.10
2023-04-21T16:00:11.246Z,18.90
2023-04-21T16:03:13.029Z,18.00
2023-04-21T16:06:15.788Z,19.40
2023-04-21T16:09:18.414Z,18.20
2023-04-21T16:12:20.081Z,18.10
2023-04-21T16:15:24.588Z,19.10
2023-04-21T16:18:27.053Z,18.00
2023-04-21T16:21:28.733Z,18.60
2023-04-21T16:24:30.360Z,18.00
2023-04-21T16:27:32.035Z,18.30
2023-04-21T16:30:35.276Z,19.30
2023-04-21T16:33:36.931Z,20.20
2023-04-21T16:36:38.592Z,18.00
2023-04-21T16:39:40.227Z,17.60
2023-04-21T16:42:41.809Z,18.60
2023-04-21T16:45:43.460Z,20.50
2023-04-21T16:48:45.359Z,18.90
2023-04-21T16:51:47.223Z,19.00
2023-04-21T16:54:48.786Z,20.70
2023-04-21T16:57:50.330Z,19.10
2023-04-21T17:00:52.439Z,19.10
2023-04-21T17:03:54.328Z,19.10
2023-04-21T17:06:55.943Z,19.00
2023-04-21T17:09:57.794Z,19.40
2023-04-21T17:12:59.360Z,19.30
2023-04-21T17:16:01.814Z,18.70
2023-04-21T17:19:03.550Z,18.90
2023-04-21T17:22:05.277Z,18.80
2023-04-21T17:25:08.065Z,18.50
2023-04-21T17:28:09.834Z,18.90
2023-04-21T17:31:15.153Z,19.10
2023-04-21T17:34:17.873Z,19.30
2023-04-21T17:37:19.513Z,19.90
2023-04-21T17:40:22.087Z,19.40
2023-04-21T17:43:24.315Z,19.60
2023-04-21T17:46:26.346Z,19.30
2023-04-21T17:49:27.935Z,19.60
2023-04-21T17:52:30.379Z,21.30
2023-04-21T17:55:32.048Z,20.50
2023-04-21T17:58:34.637Z,18.80
2023-04-21T18:01:36.234Z,19.20
2023-04-21T18:04:38.146Z,20.60
2023-04-21T18:07:41.362Z,18.30
2023-04-21T18:10:42.931Z,18.40
2023-04-21T18:13:44.543Z,18.30
2023-04-21T18:16:46.114Z,17.90
2023-04-21T18:19:47.779Z,17.70
2023-04-21T18:22:50.741Z,17.90
2023-04-21T18:25:53.557Z,17.50
2023-04-21T18:28:57.994Z,17.20
2023-04-21T18:31:59.690Z,16.70
2023-04-21T18:35:02.390Z,16.80
2023-04-21T18:38:04.888Z,16.30
2023-04-21T18:41:06.616Z,16.30
2023-04-21T18:44:08.260Z,16.00
2023-04-21T18:47:09.955Z,16.00
2023-04-21T18:50:12.096Z,17.50
2023-04-21T18:53:14.007Z,15.60
2023-04-21T18:56:15.577Z,15.50
2023-04-21T18:59:17.478Z,15.50
2023-04-21T19:02:19.195Z,15.70
2023-04-21T19:05:20.809Z,14.80
2023-04-21T19:08:38.264Z,15.40
2023-04-21T19:11:43.459Z,15.20
2023-04-21T19:14:47.421Z,15.00
2023-04-21T19:17:49.519Z,14.90
2023-04-21T19:20:51.102Z,15.20
2023-04-21T19:23:52.701Z,15.20
2023-04-21T19:26:54.395Z,14.70
2023-04-21T19:29:57.200Z,15.00
2023-04-21T19:32:58.832Z,14.70
2023-04-21T19:36:01.338Z,14.70
2023-04-21T19:39:03.972Z,14.70
2023-04-21T19:42:05.673Z,14.80
2023-04-21T19:45:08.914Z,14.40
2023-04-21T19:48:10.449Z,14.40
2023-04-21T19:51:12.055Z,14.50
2023-04-21T19:54:13.638Z,14.30
2023-04-21T19:57:15.765Z,14.50
2023-04-21T20:00:17.582Z,14.40
2023-04-21T20:03:19.801Z,14.40
2023-04-21T20:06:21.607Z,14.20
2023-04-21T20:09:23.248Z,14.30
2023-04-21T20:12:24.937Z,15.50
2023-04-21T20:15:27.486Z,14.00
2023-04-21T20:18:29.185Z,13.70
2023-04-21T20:21:32.236Z,14.00
2023-04-21T20:24:34.603Z,14.20
2023-04-21T20:27:36.336Z,13.50
2023-04-21T20:30:38.637Z,13.10
2023-04-21T20:33:40.165Z,13.00
2023-04-21T20:36:41.742Z,12.70
2023-04-21T20:39:46.646Z,12.40
2023-04-21T20:42:48.674Z,12.70
2023-04-21T20:45:50.681Z,12.70
2023-04-21T20:48:52.503Z,12.90
2023-04-21T20:51:58.424Z,12.30
2023-04-21T20:55:00.010Z,11.80
2023-04-21T20:58:02.184Z,12.10
2023-04-21T21:01:03.821Z,12.20
2023-04-21T21:04:05.512Z,11.80
2023-04-21T21:07:07.214Z,12.20
2023-04-21T21:10:11.170Z,12.10
2023-04-21T21:13:12.735Z,11.90
2023-04-21T21:16:14.909Z,11.80
2023-04-21T21:19:16.615Z,11.70
2023-04-21T21:22:18.161Z,11.90
2023-04-21T21:25:19.893Z,12.40
2023-04-21T21:28:21.533Z,11.60
2023-04-21T21:31:23.483Z,11.60
2023-04-21T21:34:25.145Z,11.40
2023-04-21T21:37:27.001Z,11.40
2023-04-21T21:40:28.651Z,11.20
2023-04-21T21:43:30.757Z,13.10
2023-04-21T21:46:32.476Z,11.30
2023-04-21T21:49:34.071Z,11.60
2023-04-21T21:52:35.626Z,11.30
2023-04-21T21:55:37.771Z,11.20
2023-04-21T21:58:39.667Z,11.40
2023-04-21T22:01:42.058Z,11.20
2023-04-21T22:04:43.982Z,13.10
2023-04-21T22:07:45.874Z,12.40
2023-04-21T22:10:47.536Z,11.10
2023-04-21T22:13:49.214Z,11.00
2023-04-21T22:16:52.336Z,10.80
2023-04-21T22:19:53.960Z,11.10
2023-04-21T22:22:55.682Z,10.60
2023-04-21T22:25:57.247Z,10.80
2023-04-21T22:28:58.944Z,10.70
2023-04-21T22:32:00.827Z,12.50
2023-04-21T22:35:03.252Z,10.70
2023-04-21T22:38:04.832Z,12.60
2023-04-21T22:41:06.635Z,11.00
2023-04-21T22:44:08.567Z,10.80
2023-04-21T22:47:13.071Z,10.70
2023-04-21T22:50:15.804Z,10.50
2023-04-21T22:53:17.649Z,10.30
2023-04-21T22:56:19.208Z,10.80
2023-04-21T22:59:20.770Z,10.30
2023-04-21T23:02:22.498Z,10.80
2023-04-21T23:05:24.245Z,10.40
2023-04-21T23:08:26.314Z,10.60
2023-04-21T23:11:27.870Z,10.60
2023-04-21T23:14:29.513Z,10.80
2023-04-21T23:17:31.055Z,10.50
2023-04-21T23:20:32.789Z,10.10
2023-04-21T23:23:34.419Z,10.20
2023-04-21T23:26:36.138Z,10.50
2023-04-21T23:29:37.827Z,10.20
2023-04-21T23:32:39.732Z,10.70
2023-04-21T23:35:41.387Z,10.30
2023-04-21T23:38:42.951Z,10.20
2023-04-21T23:41:44.825Z,10.30
2023-04-21T23:44:46.541Z,10.40
2023-04-21T23:47:48.154Z,10.40
2023-04-21T23:50:49.835Z,10.40
2023-04-21T23:53:51.520Z,10.50
2023-04-21T23:56:56.560Z,10.40
2023-04-21T23:59:58.134Z,10.30
